sensor_id;sensor_type;location;lat;lon;timestamp;pressure;altitude;pressure_sealevel;temperature;humidity
47522;BME280;32291;52.010;4.446;2022-12-20T00:00:49;78540.19;;;-144.67;100.00
47522;BME280;32291;52.010;4.446;2022-12-20T00:01:51;78538.03;;;-144.67;100.00
47522;BME280;32291;52.010;4.446;2022-12-20T00:02:53;78548.75;;;-144.67;100.00
47522;BME280;32291;52.010;4.446;2022-12-20T00:03:58;78544.47;;;-144.67;100.00
47522;BME280;32291;52.010;4.446;2022-12-20T00:05:00;78542.31;;;-144.67;100.00
47522;BME280;32291;52.010;4.446;2022-12-20T00:06:02;78544.47;;;-144.67;100.00
47522;BME280;32291;52.010;4.446;2022-12-20T00:07:04;78548.75;;;-144.67;100.00
47522;BME280;32291;52.010;4.446;2022-12-20T00:08:08;78555.16;;;-144.67;100.00
47522;BME280;32291;52.010;4.446;2022-12-20T00:09:11;78553.03;;;-144.67;100.00
47522;BME280;32291;52.010;4.446;2022-12-20T00:10:13;78540.19;;;-144.67;100.00
47522;BME280;32291;52.010;4.446;2022-12-20T00:11:15;78544.47;;;-144.67;100.00
47522;BME280;32291;52.010;4.446;2022-12-20T00:12:16;78544.47;;;-144.67;100.00
47522;BME280;32291;52.010;4.446;2022-12-20T00:13:18;78544.47;;;-144.67;100.00
47522;BME280;32291;52.010;4.446;2022-12-20T00:14:20;78544.47;;;-144.67;100.00
47522;BME280;32291;52.010;4.446;2022-12-20T00:15:21;78542.31;;;-144.67;100.00
47522;BME280;32291;52.010;4.446;2022-12-20T00:16:28;78550.88;;;-144.67;100.00
47522;BME280;32291;52.010;4.446;2022-12-20T00:17:30;78544.47;;;-144.67;100.00
47522;BME280;32291;52.010;4.446;2022-12-20T00:18:33;78548.75;;;-144.67;100.00
47522;BME280;32291;52.010;4.446;2022-12-20T00:19:35;78557.31;;;-144.67;100.00
47522;BME280;32291;52.010;4.446;2022-12-20T00:20:36;78548.75;;;-144.67;100.00
47522;BME280;32291;52.010;4.446;2022-12-20T00:21:38;78561.59;;;-144.67;100.00
47522;BME280;32291;52.010;4.446;2022-12-20T00:22:40;78563.72;;;-144.67;100.00
47522;BME280;32291;52.010;4.446;2022-12-20T00:23:42;78565.88;;;-144.67;100.00
47522;BME280;32291;52.010;4.446;2022-12-20T00:24:43;78572.28;;;-144.67;100.00
47522;BME280;32291;52.010;4.446;2022-12-20T00:25:45;78557.31;;;-144.67;100.00
47522;BME280;32291;52.010;4.446;2022-12-20T00:26:46;78565.88;;;-144.67;100.00
47522;BME280;32291;52.010;4.446;2022-12-20T00:27:48;78565.88;;;-144.67;100.00
47522;BME280;32291;52.010;4.446;2022-12-20T00:28:50;78568.00;;;-144.67;100.00
47522;BME280;32291;52.010;4.446;2022-12-20T00:29:52;78570.16;;;-144.67;100.00
47522;BME280;32291;52.010;4.446;2022-12-20T00:30:55;78546.59;;;-144.67;100.00
47522;BME280;32291;52.010;4.446;2022-12-20T00:31:56;78555.16;;;-144.67;100.00
47522;BME280;32291;52.010;4.446;2022-12-20T00:32:58;78544.47;;;-144.67;100.00
47522;BME280;32291;52.010;4.446;2022-12-20T00:34:00;78548.75;;;-144.67;100.00
47522;BME280;32291;52.010;4.446;2022-12-20T00:35:02;78553.03;;;-144.67;100.00
47522;BME280;32291;52.010;4.446;2022-12-20T00:36:06;78550.88;;;-144.67;100.00
47522;BME280;32291;52.010;4.446;2022-12-20T00:37:07;78553.03;;;-144.67;100.00
47522;BME280;32291;52.010;4.446;2022-12-20T00:38:09;78550.88;;;-144.67;100.00
47522;BME280;32291;52.010;4.446;2022-12-20T00:39:11;78548.75;;;-144.67;100.00
47522;BME280;32291;52.010;4.446;2022-12-20T00:40:13;78548.75;;;-144.67;100.00
47522;BME280;32291;52.010;4.446;2022-12-20T00:41:22;78544.47;;;-144.67;100.00
47522;BME280;32291;52.010;4.446;2022-12-20T00:42:24;78553.03;;;-144.67;100.00
47522;BME280;32291;52.010;4.446;2022-12-20T00:43:27;78548.75;;;-144.67;100.00
47522;BME280;32291;52.010;4.446;2022-12-20T00:44:29;78548.75;;;-144.67;100.00
47522;BME280;32291;52.010;4.446;2022-12-20T00:45:31;78548.75;;;-144.67;100.00
47522;BME280;32291;52.010;4.446;2022-12-20T00:46:33;78546.59;;;-144.67;100.00
47522;BME280;32291;52.010;4.446;2022-12-20T00:47:35;78548.75;;;-144.67;100.00
47522;BME280;32291;52.010;4.446;2022-12-20T00:48:37;78548.75;;;-144.67;100.00
47522;BME280;32291;52.010;4.446;2022-12-20T00:49:40;78557.31;;;-144.67;100.00
47522;BME280;32291;52.010;4.446;2022-12-20T00:50:42;78555.16;;;-144.67;100.00
47522;BME280;32291;52.010;4.446;2022-12-20T00:51:43;78559.44;;;-144.67;100.00
47522;BME280;32291;52.010;4.446;2022-12-20T00:52:45;78550.88;;;-144.67;100.00
47522;BME280;32291;52.010;4.446;2022-12-20T00:53:47;78548.75;;;-144.67;100.00
47522;BME280;32291;52.010;4.446;2022-12-20T00:54:49;78553.03;;;-144.67;100.00
47522;BME280;32291;52.010;4.446;2022-12-20T00:55:51;78555.16;;;-144.67;100.00
47522;BME280;32291;52.010;4.446;2022-12-20T00:56:52;78546.59;;;-144.67;100.00
47522;BME280;32291;52.010;4.446;2022-12-20T00:57:54;78557.31;;;-144.67;100.00
47522;BME280;32291;52.010;4.446;2022-12-20T00:58:58;78553.03;;;-144.67;100.00
47522;BME280;32291;52.010;4.446;2022-12-20T01:00:00;78553.03;;;-144.67;100.00
47522;BME280;32291;52.010;4.446;2022-12-20T01:01:04;78559.44;;;-144.67;100.00
47522;BME280;32291;52.010;4.446;2022-12-20T01:02:06;78557.31;;;-144.67;100.00
47522;BME280;32291;52.010;4.446;2022-12-20T01:03:10;78548.75;;;-144.67;100.00
47522;BME280;32291;52.010;4.446;2022-12-20T01:04:12;78550.88;;;-144.67;100.00
47522;BME280;32291;52.010;4.446;2022-12-20T01:05:14;78548.75;;;-144.67;100.00
47522;BME280;32291;52.010;4.446;2022-12-20T01:06:17;78553.03;;;-144.67;100.00
47522;BME280;32291;52.010;4.446;2022-12-20T01:07:19;78550.88;;;-144.67;100.00
47522;BME280;32291;52.010;4.446;2022-12-20T01:08:22;78561.59;;;-144.67;100.00
47522;BME280;32291;52.010;4.446;2022-12-20T01:09:24;78568.00;;;-144.67;100.00
47522;BME280;32291;52.010;4.446;2022-12-20T01:10:26;78570.16;;;-144.67;100.00
47522;BME280;32291;52.010;4.446;2022-12-20T01:11:33;78555.16;;;-144.67;100.00
47522;BME280;32291;52.010;4.446;2022-12-20T01:12:35;78555.16;;;-144.67;100.00
47522;BME280;32291;52.010;4.446;2022-12-20T01:13:40;78559.44;;;-144.67;100.00
47522;BME280;32291;52.010;4.446;2022-12-20T01:14:43;78557.31;;;-144.67;100.00
47522;BME280;32291;52.010;4.446;2022-12-20T01:15:44;78565.88;;;-144.67;100.00
47522;BME280;32291;52.010;4.446;2022-12-20T01:16:47;78561.59;;;-144.67;100.00
47522;BME280;32291;52.010;4.446;2022-12-20T01:17:48;78557.31;;;-144.67;100.00
47522;BME280;32291;52.010;4.446;2022-12-20T01:18:52;78563.72;;;-144.67;100.00
47522;BME280;32291;52.010;4.446;2022-12-20T01:19:53;78557.31;;;-144.67;100.00
47522;BME280;32291;52.010;4.446;2022-12-20T01:21:07;78550.88;;;-144.67;100.00
47522;BME280;32291;52.010;4.446;2022-12-20T01:22:10;78557.31;;;-144.67;100.00
47522;BME280;32291;52.010;4.446;2022-12-20T01:23:12;78557.31;;;-144.67;100.00
47522;BME280;32291;52.010;4.446;2022-12-20T01:24:17;78544.47;;;-144.67;100.00
47522;BME280;32291;52.010;4.446;2022-12-20T01:25:19;78529.47;;;-144.67;100.00
47522;BME280;32291;52.010;4.446;2022-12-20T01:26:24;78535.91;;;-144.67;100.00
47522;BME280;32291;52.010;4.446;2022-12-20T01:27:26;78535.91;;;-144.67;100.00
47522;BME280;32291;52.010;4.446;2022-12-20T01:28:30;78529.47;;;-144.67;100.00
47522;BME280;32291;52.010;4.446;2022-12-20T01:29:33;78523.03;;;-144.67;100.00
47522;BME280;32291;52.010;4.446;2022-12-20T01:30:40;78523.03;;;-144.67;100.00
47522;BME280;32291;52.010;4.446;2022-12-20T01:31:42;78501.63;;;-144.67;100.00
47522;BME280;32291;52.010;4.446;2022-12-20T01:32:44;78501.63;;;-144.67;100.00
47522;BME280;32291;52.010;4.446;2022-12-20T01:33:49;78505.91;;;-144.67;100.00
47522;BME280;32291;52.010;4.446;2022-12-20T01:34:53;78501.63;;;-144.67;100.00
47522;BME280;32291;52.010;4.446;2022-12-20T01:36:06;78503.78;;;-144.67;100.00
47522;BME280;32291;52.010;4.446;2022-12-20T01:37:09;78497.34;;;-144.67;100.00
47522;BME280;32291;52.010;4.446;2022-12-20T01:38:10;78499.50;;;-144.67;100.00
47522;BME280;32291;52.010;4.446;2022-12-20T01:39:15;78497.34;;;-144.67;100.00
47522;BME280;32291;52.010;4.446;2022-12-20T01:40:17;78493.06;;;-144.67;100.00
47522;BME280;32291;52.010;4.446;2022-12-20T01:41:21;78495.22;;;-144.67;100.00
47522;BME280;32291;52.010;4.446;2022-12-20T01:42:22;78493.06;;;-144.67;100.00
47522;BME280;32291;52.010;4.446;2022-12-20T01:43:52;78488.78;;;-144.67;100.00
47522;BME280;32291;52.010;4.446;2022-12-20T01:44:57;78471.66;;;-144.67;100.00
47522;BME280;32291;52.010;4.446;2022-12-20T01:45:59;78473.81;;;-144.67;100.00
47522;BME280;32291;52.010;4.446;2022-12-20T01:47:02;78480.22;;;-144.67;100.00
47522;BME280;32291;52.010;4.446;2022-12-20T01:48:04;78471.66;;;-144.67;100.00
47522;BME280;32291;52.010;4.446;2022-12-20T01:49:20;78480.22;;;-144.67;100.00
47522;BME280;32291;52.010;4.446;2022-12-20T01:50:23;78473.81;;;-144.67;100.00
47522;BME280;32291;52.010;4.446;2022-12-20T01:51:28;78473.81;;;-144.67;100.00
47522;BME280;32291;52.010;4.446;2022-12-20T01:52:40;78467.38;;;-144.67;100.00
47522;BME280;32291;52.010;4.446;2022-12-20T01:53:43;78475.94;;;-144.67;100.00
47522;BME280;32291;52.010;4.446;2022-12-20T01:54:56;78471.66;;;-144.67;100.00
47522;BME280;32291;52.010;4.446;2022-12-20T01:56:03;78463.09;;;-144.67;100.00
47522;BME280;32291;52.010;4.446;2022-12-20T01:57:14;78467.38;;;-144.67;100.00
47522;BME280;32291;52.010;4.446;2022-12-20T01:58:18;78471.66;;;-144.67;100.00
47522;BME280;32291;52.010;4.446;2022-12-20T01:59:20;78480.22;;;-144.67;100.00
47522;BME280;32291;52.010;4.446;2022-12-20T02:00:23;78463.09;;;-144.67;100.00
47522;BME280;32291;52.010;4.446;2022-12-20T02:01:25;78460.94;;;-144.67;100.00
47522;BME280;32291;52.010;4.446;2022-12-20T02:02:27;78469.53;;;-144.67;100.00
47522;BME280;32291;52.010;4.446;2022-12-20T02:03:29;78469.53;;;-144.67;100.00
47522;BME280;32291;52.010;4.446;2022-12-20T02:04:32;78471.66;;;-144.67;100.00
47522;BME280;32291;52.010;4.446;2022-12-20T02:05:44;78471.66;;;-144.67;100.00
47522;BME280;32291;52.010;4.446;2022-12-20T02:06:46;78471.66;;;-144.67;100.00
47522;BME280;32291;52.010;4.446;2022-12-20T02:07:52;78473.81;;;-144.67;100.00
47522;BME280;32291;52.010;4.446;2022-12-20T02:08:58;78488.78;;;-144.67;100.00
47522;BME280;32291;52.010;4.446;2022-12-20T02:10:03;78488.78;;;-144.67;100.00
47522;BME280;32291;52.010;4.446;2022-12-20T02:11:44;78486.66;;;-144.67;100.00
47522;BME280;32291;52.010;4.446;2022-12-20T02:12:45;78480.22;;;-144.67;100.00
47522;BME280;32291;52.010;4.446;2022-12-20T02:15:53;78497.34;;;-144.67;100.00
47522;BME280;32291;52.010;4.446;2022-12-20T02:17:12;78490.94;;;-144.67;100.00
47522;BME280;32291;52.010;4.446;2022-12-20T02:22:25;78497.34;;;-144.67;100.00
47522;BME280;32291;52.010;4.446;2022-12-20T02:27:28;78497.34;;;-144.67;100.00
47522;BME280;32291;52.010;4.446;2022-12-20T02:30:20;78499.50;;;-144.67;100.00
47522;BME280;32291;52.010;4.446;2022-12-20T02:31:34;78505.91;;;-144.67;100.00
47522;BME280;32291;52.010;4.446;2022-12-20T02:32:59;78490.94;;;-144.67;100.00
47522;BME280;32291;52.010;4.446;2022-12-20T02:34:04;78505.91;;;-144.67;100.00
47522;BME280;32291;52.010;4.446;2022-12-20T02:35:11;78488.78;;;-144.67;100.00
47522;BME280;32291;52.010;4.446;2022-12-20T02:36:16;78493.06;;;-144.67;100.00
47522;BME280;32291;52.010;4.446;2022-12-20T02:37:18;78495.22;;;-144.67;100.00
47522;BME280;32291;52.010;4.446;2022-12-20T02:38:32;78497.34;;;-144.67;100.00
47522;BME280;32291;52.010;4.446;2022-12-20T02:39:38;78484.50;;;-144.67;100.00
47522;BME280;32291;52.010;4.446;2022-12-20T02:40:43;78475.94;;;-144.67;100.00
47522;BME280;32291;52.010;4.446;2022-12-20T02:41:53;78471.66;;;-144.67;100.00
47522;BME280;32291;52.010;4.446;2022-12-20T02:43:00;78475.94;;;-144.67;100.00
47522;BME280;32291;52.010;4.446;2022-12-20T02:44:11;78471.66;;;-144.67;100.00
47522;BME280;32291;52.010;4.446;2022-12-20T02:45:36;78467.38;;;-144.67;100.00
47522;BME280;32291;52.010;4.446;2022-12-20T02:46:38;78456.66;;;-144.67;100.00
47522;BME280;32291;52.010;4.446;2022-12-20T02:48:59;78465.25;;;-144.67;100.00
47522;BME280;32291;52.010;4.446;2022-12-20T02:50:06;78471.66;;;-144.67;100.00
47522;BME280;32291;52.010;4.446;2022-12-20T02:51:09;78465.25;;;-144.67;100.00
47522;BME280;32291;52.010;4.446;2022-12-20T02:52:13;78458.81;;;-144.67;100.00
47522;BME280;32291;52.010;4.446;2022-12-20T02:53:16;78467.38;;;-144.67;100.00
47522;BME280;32291;52.010;4.446;2022-12-20T02:54:19;78456.66;;;-144.67;100.00
47522;BME280;32291;52.010;4.446;2022-12-20T02:55:55;78458.81;;;-144.67;100.00
47522;BME280;32291;52.010;4.446;2022-12-20T02:57:18;78439.53;;;-144.67;100.00
47522;BME280;32291;52.010;4.446;2022-12-20T02:59:54;78441.69;;;-144.67;100.00
47522;BME280;32291;52.010;4.446;2022-12-20T03:01:06;78441.69;;;-144.67;100.00
47522;BME280;32291;52.010;4.446;2022-12-20T03:02:10;78435.25;;;-144.67;100.00
47522;BME280;32291;52.010;4.446;2022-12-20T03:03:13;78437.41;;;-144.67;100.00
47522;BME280;32291;52.010;4.446;2022-12-20T03:04:31;78430.97;;;-144.67;100.00
47522;BME280;32291;52.010;4.446;2022-12-20T03:05:43;78428.84;;;-144.67;100.00
47522;BME280;32291;52.010;4.446;2022-12-20T03:07:11;78428.84;;;-144.67;100.00
47522;BME280;32291;52.010;4.446;2022-12-20T03:08:13;78433.13;;;-144.67;100.00
47522;BME280;32291;52.010;4.446;2022-12-20T03:09:14;78439.53;;;-144.67;100.00
47522;BME280;32291;52.010;4.446;2022-12-20T03:10:17;78433.13;;;-144.67;100.00
47522;BME280;32291;52.010;4.446;2022-12-20T03:11:20;78433.13;;;-144.67;100.00
47522;BME280;32291;52.010;4.446;2022-12-20T03:12:22;78428.84;;;-144.67;100.00
47522;BME280;32291;52.010;4.446;2022-12-20T03:13:25;78420.28;;;-144.67;100.00
47522;BME280;32291;52.010;4.446;2022-12-20T03:14:27;78411.72;;;-144.67;100.00
47522;BME280;32291;52.010;4.446;2022-12-20T03:15:29;78420.28;;;-144.67;100.00
47522;BME280;32291;52.010;4.446;2022-12-20T03:16:31;78411.72;;;-144.67;100.00
47522;BME280;32291;52.010;4.446;2022-12-20T03:17:32;78407.44;;;-144.67;100.00
47522;BME280;32291;52.010;4.446;2022-12-20T03:18:34;78407.44;;;-144.67;100.00
47522;BME280;32291;52.010;4.446;2022-12-20T03:19:35;78407.44;;;-144.67;100.00
47522;BME280;32291;52.010;4.446;2022-12-20T03:20:37;78398.88;;;-144.67;100.00
47522;BME280;32291;52.010;4.446;2022-12-20T03:21:39;78398.88;;;-144.67;100.00
47522;BME280;32291;52.010;4.446;2022-12-20T03:22:42;78403.16;;;-144.67;100.00
47522;BME280;32291;52.010;4.446;2022-12-20T03:23:44;78398.88;;;-144.67;100.00
47522;BME280;32291;52.010;4.446;2022-12-20T03:24:46;78398.88;;;-144.67;100.00
47522;BME280;32291;52.010;4.446;2022-12-20T03:25:47;78394.59;;;-144.67;100.00
47522;BME280;32291;52.010;4.446;2022-12-20T03:26:49;78383.88;;;-144.67;100.00
47522;BME280;32291;52.010;4.446;2022-12-20T03:27:50;78381.72;;;-144.67;100.00
47522;BME280;32291;52.010;4.446;2022-12-20T03:28:52;78368.88;;;-144.67;100.00
47522;BME280;32291;52.010;4.446;2022-12-20T03:29:54;78373.16;;;-144.67;100.00
47522;BME280;32291;52.010;4.446;2022-12-20T03:30:56;78381.72;;;-144.67;100.00
47522;BME280;32291;52.010;4.446;2022-12-20T03:31:58;78373.16;;;-144.67;100.00
47522;BME280;32291;52.010;4.446;2022-12-20T03:32:59;78373.16;;;-144.67;100.00
47522;BME280;32291;52.010;4.446;2022-12-20T03:34:02;78375.31;;;-144.67;100.00
47522;BME280;32291;52.010;4.446;2022-12-20T03:35:05;78373.16;;;-144.67;100.00
47522;BME280;32291;52.010;4.446;2022-12-20T03:36:07;78386.03;;;-144.67;100.00
47522;BME280;32291;52.010;4.446;2022-12-20T03:37:09;78379.59;;;-144.67;100.00
47522;BME280;32291;52.010;4.446;2022-12-20T03:38:11;78383.88;;;-144.67;100.00
47522;BME280;32291;52.010;4.446;2022-12-20T03:39:12;78371.03;;;-144.67;100.00
47522;BME280;32291;52.010;4.446;2022-12-20T03:40:14;78381.72;;;-144.67;100.00
47522;BME280;32291;52.010;4.446;2022-12-20T03:41:17;78373.16;;;-144.67;100.00
47522;BME280;32291;52.010;4.446;2022-12-20T03:42:19;78371.03;;;-144.67;100.00
47522;BME280;32291;52.010;4.446;2022-12-20T03:43:20;78373.16;;;-144.67;100.00
47522;BME280;32291;52.010;4.446;2022-12-20T03:44:22;78360.31;;;-144.67;100.00
47522;BME280;32291;52.010;4.446;2022-12-20T03:45:25;78364.59;;;-144.67;100.00
47522;BME280;32291;52.010;4.446;2022-12-20T03:46:27;78364.59;;;-144.67;100.00
47522;BME280;32291;52.010;4.446;2022-12-20T03:47:29;78364.59;;;-144.67;100.00
47522;BME280;32291;52.010;4.446;2022-12-20T03:48:31;78373.16;;;-144.67;100.00
47522;BME280;32291;52.010;4.446;2022-12-20T03:49:33;78366.75;;;-144.67;100.00
47522;BME280;32291;52.010;4.446;2022-12-20T03:50:34;78375.31;;;-144.67;100.00
47522;BME280;32291;52.010;4.446;2022-12-20T03:51:37;78379.59;;;-144.67;100.00
47522;BME280;32291;52.010;4.446;2022-12-20T03:52:39;78368.88;;;-144.67;100.00
47522;BME280;32291;52.010;4.446;2022-12-20T03:53:41;78364.59;;;-144.67;100.00
47522;BME280;32291;52.010;4.446;2022-12-20T03:54:42;78360.31;;;-144.67;100.00
47522;BME280;32291;52.010;4.446;2022-12-20T03:55:44;78366.75;;;-144.67;100.00
47522;BME280;32291;52.010;4.446;2022-12-20T03:56:45;78375.31;;;-144.67;100.00
47522;BME280;32291;52.010;4.446;2022-12-20T03:57:47;78364.59;;;-144.67;100.00
47522;BME280;32291;52.010;4.446;2022-12-20T03:58:49;78364.59;;;-144.67;100.00
47522;BME280;32291;52.010;4.446;2022-12-20T03:59:51;78364.59;;;-144.67;100.00
47522;BME280;32291;52.010;4.446;2022-12-20T04:00:56;78368.88;;;-144.67;100.00
47522;BME280;32291;52.010;4.446;2022-12-20T04:01:58;78377.44;;;-144.67;100.00
47522;BME280;32291;52.010;4.446;2022-12-20T04:03:00;78373.16;;;-144.67;100.00
47522;BME280;32291;52.010;4.446;2022-12-20T04:04:03;78377.44;;;-144.67;100.00
47522;BME280;32291;52.010;4.446;2022-12-20T04:05:06;78362.47;;;-144.67;100.00
47522;BME280;32291;52.010;4.446;2022-12-20T04:06:07;78364.59;;;-144.67;100.00
47522;BME280;32291;52.010;4.446;2022-12-20T04:07:09;78364.59;;;-144.67;100.00
47522;BME280;32291;52.010;4.446;2022-12-20T04:08:11;78364.59;;;-144.67;100.00
47522;BME280;32291;52.010;4.446;2022-12-20T04:09:14;78364.59;;;-144.67;100.00
47522;BME280;32291;52.010;4.446;2022-12-20T04:10:16;78353.91;;;-144.67;100.00
47522;BME280;32291;52.010;4.446;2022-12-20T04:11:17;78356.03;;;-144.67;100.00
47522;BME280;32291;52.010;4.446;2022-12-20T04:12:19;78364.59;;;-144.67;100.00
47522;BME280;32291;52.010;4.446;2022-12-20T04:13:21;78356.03;;;-144.67;100.00
47522;BME280;32291;52.010;4.446;2022-12-20T04:14:23;78360.31;;;-144.67;100.00
47522;BME280;32291;52.010;4.446;2022-12-20T04:15:25;78366.75;;;-144.67;100.00
47522;BME280;32291;52.010;4.446;2022-12-20T04:16:28;78364.59;;;-144.67;100.00
47522;BME280;32291;52.010;4.446;2022-12-20T04:17:30;78368.88;;;-144.67;100.00
47522;BME280;32291;52.010;4.446;2022-12-20T04:18:32;78368.88;;;-144.67;100.00
47522;BME280;32291;52.010;4.446;2022-12-20T04:19:34;78377.44;;;-144.67;100.00
47522;BME280;32291;52.010;4.446;2022-12-20T04:20:35;78386.03;;;-144.67;100.00
47522;BME280;32291;52.010;4.446;2022-12-20T04:21:37;78371.03;;;-144.67;100.00
47522;BME280;32291;52.010;4.446;2022-12-20T04:22:39;78366.75;;;-144.67;100.00
47522;BME280;32291;52.010;4.446;2022-12-20T04:23:42;78362.47;;;-144.67;100.00
47522;BME280;32291;52.010;4.446;2022-12-20T04:24:43;78368.88;;;-144.67;100.00
47522;BME280;32291;52.010;4.446;2022-12-20T04:25:45;78368.88;;;-144.67;100.00
47522;BME280;32291;52.010;4.446;2022-12-20T04:26:47;78368.88;;;-144.67;100.00
47522;BME280;32291;52.010;4.446;2022-12-20T04:27:49;78368.88;;;-144.67;100.00
47522;BME280;32291;52.010;4.446;2022-12-20T04:28:52;78371.03;;;-144.67;100.00
47522;BME280;32291;52.010;4.446;2022-12-20T04:29:54;78371.03;;;-144.67;100.00
47522;BME280;32291;52.010;4.446;2022-12-20T04:30:58;78368.88;;;-144.67;100.00
47522;BME280;32291;52.010;4.446;2022-12-20T04:32:00;78368.88;;;-144.67;100.00
47522;BME280;32291;52.010;4.446;2022-12-20T04:33:04;78368.88;;;-144.67;100.00
47522;BME280;32291;52.010;4.446;2022-12-20T04:34:06;78375.31;;;-144.67;100.00
47522;BME280;32291;52.010;4.446;2022-12-20T04:35:10;78373.16;;;-144.67;100.00
47522;BME280;32291;52.010;4.446;2022-12-20T04:36:12;78373.16;;;-144.67;100.00
47522;BME280;32291;52.010;4.446;2022-12-20T04:37:13;78368.88;;;-144.67;100.00
47522;BME280;32291;52.010;4.446;2022-12-20T04:38:15;78368.88;;;-144.67;100.00
47522;BME280;32291;52.010;4.446;2022-12-20T04:39:17;78358.19;;;-144.67;100.00
47522;BME280;32291;52.010;4.446;2022-12-20T04:40:19;78366.75;;;-144.67;100.00
47522;BME280;32291;52.010;4.446;2022-12-20T04:41:22;78364.59;;;-144.67;100.00
47522;BME280;32291;52.010;4.446;2022-12-20T04:42:24;78360.31;;;-144.67;100.00
47522;BME280;32291;52.010;4.446;2022-12-20T04:43:27;78371.03;;;-144.67;100.00
47522;BME280;32291;52.010;4.446;2022-12-20T04:44:28;78358.19;;;-144.67;100.00
47522;BME280;32291;52.010;4.446;2022-12-20T04:45:30;78366.75;;;-144.67;100.00
47522;BME280;32291;52.010;4.446;2022-12-20T04:46:32;78368.88;;;-144.67;100.00
47522;BME280;32291;52.010;4.446;2022-12-20T04:47:33;78375.31;;;-144.67;100.00
47522;BME280;32291;52.010;4.446;2022-12-20T04:48:35;78373.16;;;-144.67;100.00
47522;BME280;32291;52.010;4.446;2022-12-20T04:49:37;78366.75;;;-144.67;100.00
47522;BME280;32291;52.010;4.446;2022-12-20T04:50:39;78358.19;;;-144.67;100.00
47522;BME280;32291;52.010;4.446;2022-12-20T04:51:41;78364.59;;;-144.67;100.00
47522;BME280;32291;52.010;4.446;2022-12-20T04:52:43;78356.03;;;-144.67;100.00
47522;BME280;32291;52.010;4.446;2022-12-20T04:54:04;78364.59;;;-144.67;100.00
47522;BME280;32291;52.010;4.446;2022-12-20T04:55:06;78364.59;;;-144.67;100.00
47522;BME280;32291;52.010;4.446;2022-12-20T04:56:08;78360.31;;;-144.67;100.00
47522;BME280;32291;52.010;4.446;2022-12-20T04:57:10;78351.75;;;-144.67;100.00
47522;BME280;32291;52.010;4.446;2022-12-20T04:58:12;78364.59;;;-144.67;100.00
47522;BME280;32291;52.010;4.446;2022-12-20T04:59:14;78353.91;;;-144.67;100.00
47522;BME280;32291;52.010;4.446;2022-12-20T05:00:16;78362.47;;;-144.67;100.00
47522;BME280;32291;52.010;4.446;2022-12-20T05:01:18;78356.03;;;-144.67;100.00
47522;BME280;32291;52.010;4.446;2022-12-20T05:02:20;78356.03;;;-144.67;100.00
47522;BME280;32291;52.010;4.446;2022-12-20T05:03:24;78347.47;;;-144.67;100.00
47522;BME280;32291;52.010;4.446;2022-12-20T05:04:26;78343.19;;;-144.67;100.00
47522;BME280;32291;52.010;4.446;2022-12-20T05:05:28;78341.06;;;-144.67;100.00
47522;BME280;32291;52.010;4.446;2022-12-20T05:06:30;78343.19;;;-144.67;100.00
47522;BME280;32291;52.010;4.446;2022-12-20T05:07:31;78338.91;;;-144.67;100.00
47522;BME280;32291;52.010;4.446;2022-12-20T05:08:34;78343.19;;;-144.67;100.00
47522;BME280;32291;52.010;4.446;2022-12-20T05:09:36;78345.34;;;-144.67;100.00
47522;BME280;32291;52.010;4.446;2022-12-20T05:10:37;78334.63;;;-144.67;100.00
47522;BME280;32291;52.010;4.446;2022-12-20T05:11:39;78330.34;;;-144.67;100.00
47522;BME280;32291;52.010;4.446;2022-12-20T05:12:40;78330.34;;;-144.67;100.00
47522;BME280;32291;52.010;4.446;2022-12-20T05:13:43;78338.91;;;-144.67;100.00
47522;BME280;32291;52.010;4.446;2022-12-20T05:14:44;78338.91;;;-144.67;100.00
47522;BME280;32291;52.010;4.446;2022-12-20T05:15:51;78336.78;;;-144.67;100.00
47522;BME280;32291;52.010;4.446;2022-12-20T05:16:52;78341.06;;;-144.67;100.00
47522;BME280;32291;52.010;4.446;2022-12-20T05:17:54;78334.63;;;-144.67;100.00
47522;BME280;32291;52.010;4.446;2022-12-20T05:19:00;78330.34;;;-144.67;100.00
47522;BME280;32291;52.010;4.446;2022-12-20T05:20:06;78334.63;;;-144.67;100.00
47522;BME280;32291;52.010;4.446;2022-12-20T05:21:07;78338.91;;;-144.67;100.00
47522;BME280;32291;52.010;4.446;2022-12-20T05:22:27;78332.50;;;-144.67;100.00
47522;BME280;32291;52.010;4.446;2022-12-20T05:23:48;78338.91;;;-144.67;100.00
47522;BME280;32291;52.010;4.446;2022-12-20T05:25:10;78330.34;;;-144.67;100.00
47522;BME280;32291;52.010;4.446;2022-12-20T05:26:51;78319.66;;;-144.67;100.00
47522;BME280;32291;52.010;4.446;2022-12-20T05:27:52;78317.50;;;-144.67;100.00
47522;BME280;32291;52.010;4.446;2022-12-20T05:28:54;78313.22;;;-144.67;100.00
47522;BME280;32291;52.010;4.446;2022-12-20T05:29:56;78311.09;;;-144.67;100.00
47522;BME280;32291;52.010;4.446;2022-12-20T05:30:58;78311.09;;;-144.67;100.00
47522;BME280;32291;52.010;4.446;2022-12-20T05:32:00;78298.22;;;-144.67;100.00
47522;BME280;32291;52.010;4.446;2022-12-20T05:33:03;78302.53;;;-144.67;100.00
47522;BME280;32291;52.010;4.446;2022-12-20T05:34:04;78306.81;;;-144.67;100.00
47522;BME280;32291;52.010;4.446;2022-12-20T05:35:07;78313.22;;;-144.67;100.00
47522;BME280;32291;52.010;4.446;2022-12-20T05:36:09;78321.78;;;-144.67;100.00
47522;BME280;32291;52.010;4.446;2022-12-20T05:37:11;78315.38;;;-144.67;100.00
47522;BME280;32291;52.010;4.446;2022-12-20T05:38:13;78302.53;;;-144.67;100.00
47522;BME280;32291;52.010;4.446;2022-12-20T05:39:15;78308.94;;;-144.67;100.00
47522;BME280;32291;52.010;4.446;2022-12-20T05:40:17;78304.66;;;-144.67;100.00
47522;BME280;32291;52.010;4.446;2022-12-20T05:41:19;78291.81;;;-144.67;100.00